sensor_id;sensor_type;location;lat;lon;timestamp;P1;durP1;ratioP1;P2;durP2;ratioP2
38853;SDS011;24606;51.992;4.198;2022-09-13T00:01:27;2.65;;;1.60;;
38853;SDS011;24606;51.992;4.198;2022-09-13T00:06:29;2.28;;;1.52;;
38853;SDS011;24606;51.992;4.198;2022-09-13T00:11:32;2.65;;;1.55;;
38853;SDS011;24606;51.992;4.198;2022-09-13T00:16:34;2.13;;;1.67;;
38853;SDS011;24606;51.992;4.198;2022-09-13T00:21:36;2.95;;;1.33;;
38853;SDS011;24606;51.992;4.198;2022-09-13T00:26:39;2.00;;;1.50;;
38853;SDS011;24606;51.992;4.198;2022-09-13T00:31:41;6.13;;;1.65;;
38853;SDS011;24606;51.992;4.198;2022-09-13T00:36:43;2.83;;;1.50;;
38853;SDS011;24606;51.992;4.198;2022-09-13T00:41:46;1.67;;;1.52;;
38853;SDS011;24606;51.992;4.198;2022-09-13T00:46:48;2.03;;;1.70;;
38853;SDS011;24606;51.992;4.198;2022-09-13T00:51:51;1.77;;;1.67;;
38853;SDS011;24606;51.992;4.198;2022-09-13T00:56:58;1.70;;;1.55;;
38853;SDS011;24606;51.992;4.198;2022-09-13T01:02:04;2.80;;;2.00;;
38853;SDS011;24606;51.992;4.198;2022-09-13T01:07:07;3.42;;;2.33;;
38853;SDS011;24606;51.992;4.198;2022-09-13T01:12:16;2.42;;;1.83;;
38853;SDS011;24606;51.992;4.198;2022-09-13T01:17:25;2.80;;;1.63;;
38853;SDS011;24606;51.992;4.198;2022-09-13T01:28:11;1.80;;;1.63;;
38853;SDS011;24606;51.992;4.198;2022-09-13T01:33:40;2.88;;;2.05;;
38853;SDS011;24606;51.992;4.198;2022-09-13T01:38:58;1.88;;;1.70;;
38853;SDS011;24606;51.992;4.198;2022-09-13T01:44:06;3.47;;;1.55;;
38853;SDS011;24606;51.992;4.198;2022-09-13T01:49:16;2.53;;;1.98;;
38853;SDS011;24606;51.992;4.198;2022-09-13T01:54:23;4.22;;;1.88;;
38853;SDS011;24606;51.992;4.198;2022-09-13T01:59:36;3.13;;;1.85;;
38853;SDS011;24606;51.992;4.198;2022-09-13T02:04:47;2.83;;;1.67;;
38853;SDS011;24606;51.992;4.198;2022-09-13T02:09:54;2.22;;;1.75;;
38853;SDS011;24606;51.992;4.198;2022-09-13T02:15:02;2.38;;;1.75;;
38853;SDS011;24606;51.992;4.198;2022-09-13T02:20:12;1.85;;;1.55;;
38853;SDS011;24606;51.992;4.198;2022-09-13T02:25:18;2.47;;;1.75;;
38853;SDS011;24606;51.992;4.198;2022-09-13T02:30:23;2.08;;;1.60;;
38853;SDS011;24606;51.992;4.198;2022-09-13T02:35:26;2.70;;;1.67;;
38853;SDS011;24606;51.992;4.198;2022-09-13T02:40:33;3.00;;;2.00;;
38853;SDS011;24606;51.992;4.198;2022-09-13T02:45:41;2.05;;;1.75;;
38853;SDS011;24606;51.992;4.198;2022-09-13T02:50:51;1.92;;;1.40;;
38853;SDS011;24606;51.992;4.198;2022-09-13T02:56:02;3.97;;;1.75;;
38853;SDS011;24606;51.992;4.198;2022-09-13T03:01:11;3.65;;;1.80;;
38853;SDS011;24606;51.992;4.198;2022-09-13T03:06:21;1.77;;;1.50;;
38853;SDS011;24606;51.992;4.198;2022-09-13T03:11:24;2.67;;;1.95;;
38853;SDS011;24606;51.992;4.198;2022-09-13T03:16:41;2.42;;;1.58;;
38853;SDS011;24606;51.992;4.198;2022-09-13T03:22:00;2.00;;;1.52;;
38853;SDS011;24606;51.992;4.198;2022-09-13T03:27:15;1.92;;;1.70;;
38853;SDS011;24606;51.992;4.198;2022-09-13T03:32:25;2.90;;;1.60;;
38853;SDS011;24606;51.992;4.198;2022-09-13T03:37:38;1.73;;;1.58;;
38853;SDS011;24606;51.992;4.198;2022-09-13T03:42:49;1.75;;;1.63;;
38853;SDS011;24606;51.992;4.198;2022-09-13T03:47:54;3.53;;;1.67;;
38853;SDS011;24606;51.992;4.198;2022-09-13T03:52:59;2.10;;;1.50;;
38853;SDS011;24606;51.992;4.198;2022-09-13T03:58:04;2.08;;;1.80;;
38853;SDS011;24606;51.992;4.198;2022-09-13T04:03:06;2.28;;;1.30;;
38853;SDS011;24606;51.992;4.198;2022-09-13T04:08:09;1.55;;;1.45;;
38853;SDS011;24606;51.992;4.198;2022-09-13T04:13:11;2.45;;;1.40;;
38853;SDS011;24606;51.992;4.198;2022-09-13T04:18:13;1.83;;;1.40;;
38853;SDS011;24606;51.992;4.198;2022-09-13T04:23:16;1.45;;;0.82;;
38853;SDS011;24606;51.992;4.198;2022-09-13T04:28:18;2.75;;;1.58;;
38853;SDS011;24606;51.992;4.198;2022-09-13T04:33:22;1.80;;;1.27;;
38853;SDS011;24606;51.992;4.198;2022-09-13T04:38:25;2.03;;;1.30;;
38853;SDS011;24606;51.992;4.198;2022-09-13T04:43:30;1.83;;;1.10;;
38853;SDS011;24606;51.992;4.198;2022-09-13T04:48:32;1.40;;;1.30;;
38853;SDS011;24606;51.992;4.198;2022-09-13T04:53:36;1.63;;;1.15;;
38853;SDS011;24606;51.992;4.198;2022-09-13T04:58:38;3.22;;;1.23;;
38853;SDS011;24606;51.992;4.198;2022-09-13T05:03:39;2.20;;;1.45;;
38853;SDS011;24606;51.992;4.198;2022-09-13T05:08:43;2.45;;;1.00;;
38853;SDS011;24606;51.992;4.198;2022-09-13T05:13:47;1.40;;;1.00;;
38853;SDS011;24606;51.992;4.198;2022-09-13T05:18:52;1.42;;;1.33;;
38853;SDS011;24606;51.992;4.198;2022-09-13T05:23:56;1.67;;;1.00;;
38853;SDS011;24606;51.992;4.198;2022-09-13T05:28:58;1.30;;;1.20;;
38853;SDS011;24606;51.992;4.198;2022-09-13T05:34:01;1.23;;;1.00;;
38853;SDS011;24606;51.992;4.198;2022-09-13T05:39:09;1.10;;;1.00;;
38853;SDS011;24606;51.992;4.198;2022-09-13T05:44:13;2.22;;;1.10;;
38853;SDS011;24606;51.992;4.198;2022-09-13T05:49:15;1.88;;;1.08;;
38853;SDS011;24606;51.992;4.198;2022-09-13T05:54:18;1.15;;;0.95;;
38853;SDS011;24606;51.992;4.198;2022-09-13T05:59:20;1.90;;;1.05;;
38853;SDS011;24606;51.992;4.198;2022-09-13T06:04:22;1.63;;;0.95;;
38853;SDS011;24606;51.992;4.198;2022-09-13T06:09:25;1.73;;;0.85;;
38853;SDS011;24606;51.992;4.198;2022-09-13T06:14:27;2.65;;;1.67;;
38853;SDS011;24606;51.992;4.198;2022-09-13T06:19:29;3.10;;;1.80;;
38853;SDS011;24606;51.992;4.198;2022-09-13T06:24:32;6.25;;;3.25;;
38853;SDS011;24606;51.992;4.198;2022-09-13T06:29:36;6.32;;;3.55;;
38853;SDS011;24606;51.992;4.198;2022-09-13T06:34:38;4.07;;;2.78;;
38853;SDS011;24606;51.992;4.198;2022-09-13T06:39:41;5.45;;;3.40;;
38853;SDS011;24606;51.992;4.198;2022-09-13T06:44:43;5.68;;;2.38;;
38853;SDS011;24606;51.992;4.198;2022-09-13T06:49:47;5.40;;;1.98;;
38853;SDS011;24606;51.992;4.198;2022-09-13T06:54:50;3.42;;;1.88;;
38853;SDS011;24606;51.992;4.198;2022-09-13T06:59:52;2.45;;;1.45;;
38853;SDS011;24606;51.992;4.198;2022-09-13T07:04:54;1.85;;;1.30;;
38853;SDS011;24606;51.992;4.198;2022-09-13T07:15:00;1.50;;;1.00;;
38853;SDS011;24606;51.992;4.198;2022-09-13T07:20:02;3.55;;;1.20;;
38853;SDS011;24606;51.992;4.198;2022-09-13T07:25:08;4.78;;;1.85;;
38853;SDS011;24606;51.992;4.198;2022-09-13T07:30:10;4.45;;;2.47;;
38853;SDS011;24606;51.992;4.198;2022-09-13T07:35:12;2.88;;;1.95;;
38853;SDS011;24606;51.992;4.198;2022-09-13T07:40:16;3.90;;;1.50;;
38853;SDS011;24606;51.992;4.198;2022-09-13T07:45:17;2.55;;;1.48;;
38853;SDS011;24606;51.992;4.198;2022-09-13T07:50:20;1.45;;;1.08;;
38853;SDS011;24606;51.992;4.198;2022-09-13T07:55:23;1.30;;;0.73;;
38853;SDS011;24606;51.992;4.198;2022-09-13T08:00:25;0.90;;;0.57;;
38853;SDS011;24606;51.992;4.198;2022-09-13T08:05:28;2.90;;;0.80;;
38853;SDS011;24606;51.992;4.198;2022-09-13T08:10:33;1.77;;;1.00;;
38853;SDS011;24606;51.992;4.198;2022-09-13T08:15:35;1.08;;;0.40;;
38853;SDS011;24606;51.992;4.198;2022-09-13T08:20:37;3.80;;;0.90;;
38853;SDS011;24606;51.992;4.198;2022-09-13T08:25:41;0.98;;;0.50;;
38853;SDS011;24606;51.992;4.198;2022-09-13T08:30:43;1.30;;;0.60;;
38853;SDS011;24606;51.992;4.198;2022-09-13T08:35:51;0.90;;;0.52;;
38853;SDS011;24606;51.992;4.198;2022-09-13T08:40:56;2.58;;;0.70;;
38853;SDS011;24606;51.992;4.198;2022-09-13T08:46:01;2.50;;;0.50;;
38853;SDS011;24606;51.992;4.198;2022-09-13T08:51:08;4.03;;;0.75;;
38853;SDS011;24606;51.992;4.198;2022-09-13T08:56:21;3.38;;;0.65;;
38853;SDS011;24606;51.992;4.198;2022-09-13T09:01:32;2.85;;;0.70;;
38853;SDS011;24606;51.992;4.198;2022-09-13T09:06:47;1.23;;;0.50;;
38853;SDS011;24606;51.992;4.198;2022-09-13T09:11:51;2.95;;;0.70;;
38853;SDS011;24606;51.992;4.198;2022-09-13T09:16:59;2.65;;;0.90;;
38853;SDS011;24606;51.992;4.198;2022-09-13T09:22:05;2.97;;;0.60;;
38853;SDS011;24606;51.992;4.198;2022-09-13T09:27:16;11.80;;;0.70;;
38853;SDS011;24606;51.992;4.198;2022-09-13T09:32:23;2.15;;;0.50;;
38853;SDS011;24606;51.992;4.198;2022-09-13T09:37:53;4.75;;;0.80;;
38853;SDS011;24606;51.992;4.198;2022-09-13T09:43:13;3.88;;;0.65;;
38853;SDS011;24606;51.992;4.198;2022-09-13T09:48:29;7.60;;;0.93;;
38853;SDS011;24606;51.992;4.198;2022-09-13T09:53:38;6.60;;;0.70;;
38853;SDS011;24606;51.992;4.198;2022-09-13T09:58:45;4.03;;;1.00;;
38853;SDS011;24606;51.992;4.198;2022-09-13T10:03:53;1.70;;;0.60;;
38853;SDS011;24606;51.992;4.198;2022-09-13T10:09:04;2.95;;;0.82;;
38853;SDS011;24606;51.992;4.198;2022-09-13T10:14:08;4.38;;;0.75;;
38853;SDS011;24606;51.992;4.198;2022-09-13T10:19:30;3.38;;;0.95;;
38853;SDS011;24606;51.992;4.198;2022-09-13T10:24:32;2.13;;;0.50;;
38853;SDS011;24606;51.992;4.198;2022-09-13T10:29:34;2.83;;;0.90;;
38853;SDS011;24606;51.992;4.198;2022-09-13T10:34:40;1.20;;;0.50;;
38853;SDS011;24606;51.992;4.198;2022-09-13T10:39:50;1.45;;;0.57;;
38853;SDS011;24606;51.992;4.198;2022-09-13T10:44:56;2.58;;;1.05;;
38853;SDS011;24606;51.992;4.198;2022-09-13T10:50:12;0.90;;;0.50;;
38853;SDS011;24606;51.992;4.198;2022-09-13T10:55:24;2.30;;;0.63;;
38853;SDS011;24606;51.992;4.198;2022-09-13T11:00:30;2.15;;;1.08;;
38853;SDS011;24606;51.992;4.198;2022-09-13T11:05:41;2.10;;;0.80;;
38853;SDS011;24606;51.992;4.198;2022-09-13T11:10:50;2.72;;;0.73;;
38853;SDS011;24606;51.992;4.198;2022-09-13T11:16:03;1.83;;;0.52;;
38853;SDS011;24606;51.992;4.198;2022-09-13T11:21:24;4.40;;;0.90;;
38853;SDS011;24606;51.992;4.198;2022-09-13T11:26:38;2.40;;;0.73;;
38853;SDS011;24606;51.992;4.198;2022-09-13T11:31:51;1.15;;;0.60;;
38853;SDS011;24606;51.992;4.198;2022-09-13T11:37:13;1.90;;;0.60;;
38853;SDS011;24606;51.992;4.198;2022-09-13T11:42:27;1.60;;;0.52;;
38853;SDS011;24606;51.992;4.198;2022-09-13T11:47:41;4.45;;;0.60;;
38853;SDS011;24606;51.992;4.198;2022-09-13T11:52:51;2.88;;;0.68;;
38853;SDS011;24606;51.992;4.198;2022-09-13T12:03:05;2.33;;;0.40;;
38853;SDS011;24606;51.992;4.198;2022-09-13T12:08:19;3.28;;;0.80;;
38853;SDS011;24606;51.992;4.198;2022-09-13T12:13:25;2.47;;;0.52;;
38853;SDS011;24606;51.992;4.198;2022-09-13T12:18:29;2.72;;;0.70;;
38853;SDS011;24606;51.992;4.198;2022-09-13T12:23:36;2.10;;;0.60;;
38853;SDS011;24606;51.992;4.198;2022-09-13T12:28:43;2.35;;;0.80;;
38853;SDS011;24606;51.992;4.198;2022-09-13T12:33:49;1.30;;;0.50;;
38853;SDS011;24606;51.992;4.198;2022-09-13T12:38:59;2.03;;;0.50;;
38853;SDS011;24606;51.992;4.198;2022-09-13T12:44:22;3.05;;;0.50;;
38853;SDS011;24606;51.992;4.198;2022-09-13T12:49:43;5.85;;;0.30;;
38853;SDS011;24606;51.992;4.198;2022-09-13T12:55:18;2.67;;;0.63;;
38853;SDS011;24606;51.992;4.198;2022-09-13T13:00:41;0.73;;;0.30;;
38853;SDS011;24606;51.992;4.198;2022-09-13T13:05:49;3.80;;;0.90;;
38853;SDS011;24606;51.992;4.198;2022-09-13T13:11:02;1.55;;;0.40;;
38853;SDS011;24606;51.992;4.198;2022-09-13T13:16:21;0.63;;;0.38;;
38853;SDS011;24606;51.992;4.198;2022-09-13T13:21:26;2.83;;;0.40;;
38853;SDS011;24606;51.992;4.198;2022-09-13T13:26:45;3.92;;;0.50;;
38853;SDS011;24606;51.992;4.198;2022-09-13T13:37:27;2.03;;;0.60;;
38853;SDS011;24606;51.992;4.198;2022-09-13T13:42:36;2.45;;;0.57;;
38853;SDS011;24606;51.992;4.198;2022-09-13T13:53:16;1.45;;;0.30;;
38853;SDS011;24606;51.992;4.198;2022-09-13T13:58:25;2.45;;;0.40;;
38853;SDS011;24606;51.992;4.198;2022-09-13T14:03:39;6.13;;;0.60;;
38853;SDS011;24606;51.992;4.198;2022-09-13T14:08:54;1.00;;;0.30;;
38853;SDS011;24606;51.992;4.198;2022-09-13T14:14:07;2.10;;;0.40;;
38853;SDS011;24606;51.992;4.198;2022-09-13T14:19:21;1.58;;;0.70;;
38853;SDS011;24606;51.992;4.198;2022-09-13T14:24:33;1.50;;;0.50;;
38853;SDS011;24606;51.992;4.198;2022-09-13T14:29:38;1.67;;;0.40;;
38853;SDS011;24606;51.992;4.198;2022-09-13T14:34:48;2.45;;;0.40;;
38853;SDS011;24606;51.992;4.198;2022-09-13T14:39:53;3.55;;;0.55;;
38853;SDS011;24606;51.992;4.198;2022-09-13T14:44:58;1.10;;;0.30;;
38853;SDS011;24606;51.992;4.198;2022-09-13T14:50:00;5.13;;;0.50;;
38853;SDS011;24606;51.992;4.198;2022-09-13T14:55:06;2.05;;;0.50;;
38853;SDS011;24606;51.992;4.198;2022-09-13T15:00:16;2.72;;;0.50;;
38853;SDS011;24606;51.992;4.198;2022-09-13T15:05:20;1.65;;;0.52;;
38853;SDS011;24606;51.992;4.198;2022-09-13T15:10:25;6.03;;;0.90;;
38853;SDS011;24606;51.992;4.198;2022-09-13T15:15:33;1.95;;;0.50;;
38853;SDS011;24606;51.992;4.198;2022-09-13T15:20:43;3.95;;;1.05;;
38853;SDS011;24606;51.992;4.198;2022-09-13T15:25:49;8.57;;;1.30;;
38853;SDS011;24606;51.992;4.198;2022-09-13T15:30:55;5.30;;;1.23;;
38853;SDS011;24606;51.992;4.198;2022-09-13T15:36:13;4.32;;;0.90;;
38853;SDS011;24606;51.992;4.198;2022-09-13T15:41:29;6.10;;;0.60;;
38853;SDS011;24606;51.992;4.198;2022-09-13T15:46:36;2.97;;;0.80;;
38853;SDS011;24606;51.992;4.198;2022-09-13T15:51:44;3.97;;;0.82;;
38853;SDS011;24606;51.992;4.198;2022-09-13T15:56:46;4.55;;;0.85;;
38853;SDS011;24606;51.992;4.198;2022-09-13T16:01:51;3.30;;;0.80;;
38853;SDS011;24606;51.992;4.198;2022-09-13T16:06:54;3.63;;;1.63;;
38853;SDS011;24606;51.992;4.198;2022-09-13T16:11:56;3.53;;;0.57;;
38853;SDS011;24606;51.992;4.198;2022-09-13T16:16:59;2.45;;;0.55;;
38853;SDS011;24606;51.992;4.198;2022-09-13T16:22:04;3.45;;;0.85;;
38853;SDS011;24606;51.992;4.198;2022-09-13T16:27:06;3.75;;;0.55;;
38853;SDS011;24606;51.992;4.198;2022-09-13T16:32:09;5.93;;;0.82;;
38853;SDS011;24606;51.992;4.198;2022-09-13T16:37:12;1.80;;;0.47;;
38853;SDS011;24606;51.992;4.198;2022-09-13T16:42:15;4.63;;;1.30;;
38853;SDS011;24606;51.992;4.198;2022-09-13T16:47:19;6.13;;;3.00;;
38853;SDS011;24606;51.992;4.198;2022-09-13T16:52:21;7.82;;;5.30;;
38853;SDS011;24606;51.992;4.198;2022-09-13T16:57:22;8.80;;;4.82;;
38853;SDS011;24606;51.992;4.198;2022-09-13T17:02:26;7.78;;;4.55;;
38853;SDS011;24606;51.992;4.198;2022-09-13T17:07:28;6.90;;;3.42;;
38853;SDS011;24606;51.992;4.198;2022-09-13T17:12:30;6.35;;;3.40;;
38853;SDS011;24606;51.992;4.198;2022-09-13T17:17:33;6.18;;;2.47;;
38853;SDS011;24606;51.992;4.198;2022-09-13T17:22:36;3.08;;;1.80;;
38853;SDS011;24606;51.992;4.198;2022-09-13T17:27:37;3.45;;;1.38;;
38853;SDS011;24606;51.992;4.198;2022-09-13T17:32:41;1.52;;;0.80;;
38853;SDS011;24606;51.992;4.198;2022-09-13T17:37:42;5.70;;;1.20;;
38853;SDS011;24606;51.992;4.198;2022-09-13T17:42:44;5.95;;;0.90;;
38853;SDS011;24606;51.992;4.198;2022-09-13T17:47:50;2.08;;;0.70;;
38853;SDS011;24606;51.992;4.198;2022-09-13T17:52:52;3.35;;;1.17;;
38853;SDS011;24606;51.992;4.198;2022-09-13T17:57:54;3.05;;;1.25;;
38853;SDS011;24606;51.992;4.198;2022-09-13T18:02:57;3.17;;;0.70;;
38853;SDS011;24606;51.992;4.198;2022-09-13T18:07:59;1.33;;;0.43;;
38853;SDS011;24606;51.992;4.198;2022-09-13T18:13:02;3.50;;;0.85;;
38853;SDS011;24606;51.992;4.198;2022-09-13T18:18:05;4.80;;;0.60;;
38853;SDS011;24606;51.992;4.198;2022-09-13T18:23:07;4.07;;;0.45;;
38853;SDS011;24606;51.992;4.198;2022-09-13T18:28:08;3.53;;;0.60;;
38853;SDS011;24606;51.992;4.198;2022-09-13T18:33:11;2.80;;;0.63;;
38853;SDS011;24606;51.992;4.198;2022-09-13T18:38:15;2.85;;;0.73;;
38853;SDS011;24606;51.992;4.198;2022-09-13T18:43:17;3.45;;;0.70;;
38853;SDS011;24606;51.992;4.198;2022-09-13T18:48:20;4.07;;;0.90;;
38853;SDS011;24606;51.992;4.198;2022-09-13T18:53:22;5.40;;;0.68;;
38853;SDS011;24606;51.992;4.198;2022-09-13T18:58:24;5.93;;;0.65;;
38853;SDS011;24606;51.992;4.198;2022-09-13T19:03:29;5.28;;;0.77;;
38853;SDS011;24606;51.992;4.198;2022-09-13T19:08:31;4.47;;;0.90;;
38853;SDS011;24606;51.992;4.198;2022-09-13T19:13:34;2.97;;;0.60;;
38853;SDS011;24606;51.992;4.198;2022-09-13T19:18:37;3.20;;;0.63;;
38853;SDS011;24606;51.992;4.198;2022-09-13T19:23:40;6.78;;;0.75;;
38853;SDS011;24606;51.992;4.198;2022-09-13T19:28:44;2.63;;;1.33;;
38853;SDS011;24606;51.992;4.198;2022-09-13T19:33:49;1.05;;;0.35;;
38853;SDS011;24606;51.992;4.198;2022-09-13T19:38:52;2.13;;;0.68;;
38853;SDS011;24606;51.992;4.198;2022-09-13T19:43:55;3.75;;;0.80;;
38853;SDS011;24606;51.992;4.198;2022-09-13T19:49:00;5.38;;;1.02;;
38853;SDS011;24606;51.992;4.198;2022-09-13T19:54:03;5.90;;;1.23;;
38853;SDS011;24606;51.992;4.198;2022-09-13T19:59:07;6.80;;;1.73;;
38853;SDS011;24606;51.992;4.198;2022-09-13T20:04:12;4.82;;;1.58;;
38853;SDS011;24606;51.992;4.198;2022-09-13T20:09:16;6.93;;;1.45;;
38853;SDS011;24606;51.992;4.198;2022-09-13T20:14:19;4.40;;;0.65;;
38853;SDS011;24606;51.992;4.198;2022-09-13T20:19:23;6.43;;;1.60;;
38853;SDS011;24606;51.992;4.198;2022-09-13T20:24:25;4.85;;;1.20;;
38853;SDS011;24606;51.992;4.198;2022-09-13T20:29:27;5.13;;;1.42;;
38853;SDS011;24606;51.992;4.198;2022-09-13T20:34:31;7.25;;;2.30;;
38853;SDS011;24606;51.992;4.198;2022-09-13T20:39:34;5.75;;;2.13;;
38853;SDS011;24606;51.992;4.198;2022-09-13T20:44:35;3.65;;;1.30;;
38853;SDS011;24606;51.992;4.198;2022-09-13T20:49:40;3.72;;;1.00;;
38853;SDS011;24606;51.992;4.198;2022-09-13T20:54:42;4.57;;;1.42;;
38853;SDS011;24606;51.992;4.198;2022-09-13T20:59:44;3.20;;;1.20;;
38853;SDS011;24606;51.992;4.198;2022-09-13T21:04:47;7.30;;;0.98;;
38853;SDS011;24606;51.992;4.198;2022-09-13T21:09:49;5.38;;;1.00;;
38853;SDS011;24606;51.992;4.198;2022-09-13T21:14:50;3.00;;;1.00;;
38853;SDS011;24606;51.992;4.198;2022-09-13T21:19:53;4.97;;;1.95;;
38853;SDS011;24606;51.992;4.198;2022-09-13T21:24:55;6.60;;;2.03;;
38853;SDS011;24606;51.992;4.198;2022-09-13T21:29:57;5.22;;;1.83;;
38853;SDS011;24606;51.992;4.198;2022-09-13T21:35:01;6.70;;;2.67;;
38853;SDS011;24606;51.992;4.198;2022-09-13T21:40:03;8.02;;;2.92;;
38853;SDS011;24606;51.992;4.198;2022-09-13T21:45:06;6.70;;;2.63;;
38853;SDS011;24606;51.992;4.198;2022-09-13T21:50:10;5.30;;;1.98;;
38853;SDS011;24606;51.992;4.198;2022-09-13T21:55:12;6.00;;;2.53;;
38853;SDS011;24606;51.992;4.198;2022-09-13T22:00:14;4.55;;;2.30;;
38853;SDS011;24606;51.992;4.198;2022-09-13T22:05:18;3.50;;;1.98;;
38853;SDS011;24606;51.992;4.198;2022-09-13T22:10:20;4.32;;;1.88;;
38853;SDS011;24606;51.992;4.198;2022-09-13T22:15:23;5.75;;;2.22;;
38853;SDS011;24606;51.992;4.198;2022-09-13T22:20:26;4.45;;;2.50;;
38853;SDS011;24606;51.992;4.198;2022-09-13T22:25:28;4.32;;;2.38;;
38853;SDS011;24606;51.992;4.198;2022-09-13T22:30:30;7.05;;;2.50;;
38853;SDS011;24606;51.992;4.198;2022-09-13T22:35:36;5.15;;;2.00;;
38853;SDS011;24606;51.992;4.198;2022-09-13T22:40:37;4.18;;;1.80;;
38853;SDS011;24606;51.992;4.198;2022-09-13T22:45:39;3.67;;;1.98;;
38853;SDS011;24606;51.992;4.198;2022-09-13T22:50:42;5.45;;;2.42;;
38853;SDS011;24606;51.992;4.198;2022-09-13T22:55:49;6.55;;;2.55;;
38853;SDS011;24606;51.992;4.198;2022-09-13T23:00:51;6.60;;;2.45;;
38853;SDS011;24606;51.992;4.198;2022-09-13T23:06:02;4.00;;;1.92;;
38853;SDS011;24606;51.992;4.198;2022-09-13T23:11:08;4.60;;;2.05;;
38853;SDS011;24606;51.992;4.198;2022-09-13T23:16:12;4.47;;;2.00;;
38853;SDS011;24606;51.992;4.198;2022-09-13T23:21:18;5.03;;;2.45;;
38853;SDS011;24606;51.992;4.198;2022-09-13T23:26:21;5.07;;;2.55;;
38853;SDS011;24606;51.992;4.198;2022-09-13T23:31:24;5.63;;;2.55;;
38853;SDS011;24606;51.992;4.198;2022-09-13T23:36:30;4.90;;;2.28;;
38853;SDS011;24606;51.992;4.198;2022-09-13T23:41:33;3.40;;;1.98;;
38853;SDS011;24606;51.992;4.198;2022-09-13T23:46:35;3.08;;;1.67;;
38853;SDS011;24606;51.992;4.198;2022-09-13T23:51:39;4.03;;;1.73;;
38853;SDS011;24606;51.992;4.198;2022-09-13T23:56:41;4.82;;;2.30;;
